createdAt,value
2018-07-13T00:00:23.383Z,17.70
2018-07-13T00:02:51.741Z,17.70
2018-07-13T00:05:20.122Z,17.70
2018-07-13T00:07:48.576Z,17.70
2018-07-13T00:10:16.984Z,17.70
2018-07-13T00:12:45.360Z,17.60
2018-07-13T00:15:14.017Z,17.70
2018-07-13T00:17:42.402Z,17.70
2018-07-13T00:20:10.780Z,17.70
2018-07-13T00:22:39.153Z,17.70
2018-07-13T00:25:07.565Z,17.70
2018-07-13T00:27:35.976Z,17.70
2018-07-13T00:30:04.571Z,17.60
2018-07-13T00:32:33.013Z,17.70
2018-07-13T00:35:01.433Z,17.70
2018-07-13T00:37:29.788Z,17.60
2018-07-13T00:39:58.162Z,17.60
2018-07-13T00:42:26.603Z,17.60
2018-07-13T00:44:55.015Z,17.60
2018-07-13T00:47:23.376Z,17.60
2018-07-13T00:49:52.056Z,17.60
2018-07-13T00:52:20.503Z,17.60
2018-07-13T00:54:48.893Z,17.60
2018-07-13T00:57:17.455Z,17.60
2018-07-13T00:59:45.811Z,17.60
2018-07-13T01:02:14.510Z,17.60
2018-07-13T01:04:43.134Z,17.60
2018-07-13T01:07:11.741Z,17.60
2018-07-13T01:09:41.347Z,17.60
2018-07-13T01:12:09.821Z,17.60
2018-07-13T01:14:38.448Z,17.60
2018-07-13T01:17:06.871Z,17.60
2018-07-13T01:19:35.636Z,17.60
2018-07-13T01:22:04.266Z,17.60
2018-07-13T01:24:32.803Z,17.50
2018-07-13T01:27:01.163Z,17.60
2018-07-13T01:29:29.494Z,17.60
2018-07-13T01:31:57.858Z,17.50
2018-07-13T01:34:26.208Z,17.50
2018-07-13T01:36:54.641Z,17.40
2018-07-13T01:39:23.042Z,17.50
2018-07-13T01:41:51.509Z,17.50
2018-07-13T01:44:19.858Z,17.50
2018-07-13T01:46:48.234Z,17.50
2018-07-13T01:49:16.608Z,17.50
2018-07-13T01:51:44.999Z,17.50
2018-07-13T01:54:13.420Z,17.50
2018-07-13T01:56:41.754Z,17.50
2018-07-13T01:59:10.240Z,17.50
2018-07-13T02:01:38.612Z,17.50
2018-07-13T02:04:06.993Z,17.50
2018-07-13T02:06:35.451Z,17.50
2018-07-13T02:09:04.323Z,17.50
2018-07-13T02:11:32.717Z,17.50
2018-07-13T02:14:01.076Z,17.50
2018-07-13T02:16:29.765Z,17.50
2018-07-13T02:18:58.147Z,17.50
2018-07-13T02:21:26.585Z,17.50
2018-07-13T02:23:55.079Z,17.50
2018-07-13T02:26:23.445Z,17.50
2018-07-13T02:28:51.853Z,17.50
2018-07-13T02:31:20.265Z,17.40
2018-07-13T02:33:48.717Z,17.40
2018-07-13T02:36:17.047Z,17.40
2018-07-13T02:38:45.409Z,17.40
2018-07-13T02:41:13.890Z,17.40
2018-07-13T02:43:42.356Z,17.40
2018-07-13T02:46:10.788Z,17.40
2018-07-13T02:48:39.136Z,17.40
2018-07-13T02:51:07.537Z,17.40
2018-07-13T02:53:35.872Z,17.40
2018-07-13T02:56:04.416Z,17.40
2018-07-13T02:58:32.776Z,17.40
2018-07-13T03:01:01.140Z,17.40
2018-07-13T03:03:29.502Z,17.40
2018-07-13T03:05:57.924Z,17.40
2018-07-13T03:08:26.302Z,17.30
2018-07-13T03:10:54.699Z,17.30
2018-07-13T03:13:23.395Z,17.30
2018-07-13T03:15:51.783Z,17.30
2018-07-13T03:18:20.176Z,17.30
2018-07-13T03:20:48.560Z,17.30
2018-07-13T03:23:16.947Z,17.30
2018-07-13T03:25:45.351Z,17.20
2018-07-13T03:28:13.725Z,17.20
2018-07-13T03:30:42.306Z,17.20
2018-07-13T03:33:10.744Z,17.20
2018-07-13T03:35:39.154Z,17.30
2018-07-13T03:38:07.582Z,17.30
2018-07-13T03:40:36.030Z,17.20
2018-07-13T03:43:04.424Z,17.30
2018-07-13T03:45:32.894Z,17.20
2018-07-13T03:48:01.331Z,17.20
2018-07-13T03:50:29.930Z,17.20
2018-07-13T03:52:58.439Z,17.20
2018-07-13T03:55:26.916Z,17.20
2018-07-13T03:57:55.298Z,17.30
2018-07-13T04:00:23.726Z,17.30
2018-07-13T04:02:52.095Z,17.30
2018-07-13T04:05:20.570Z,17.40
2018-07-13T04:07:48.954Z,17.40
2018-07-13T04:10:17.377Z,17.50
2018-07-13T04:12:45.779Z,17.50
2018-07-13T04:15:14.239Z,17.50
2018-07-13T04:17:42.664Z,17.50
2018-07-13T04:20:11.097Z,17.60
2018-07-13T04:22:39.767Z,17.70
2018-07-13T04:25:08.157Z,17.70
2018-07-13T04:27:37.115Z,17.80
2018-07-13T04:30:06.059Z,17.80
2018-07-13T04:32:34.471Z,17.90
2018-07-13T04:35:02.872Z,17.90
2018-07-13T04:37:31.415Z,18.00
2018-07-13T04:40:00.069Z,18.00
2018-07-13T04:42:28.488Z,18.00
2018-07-13T04:44:56.795Z,18.10
2018-07-13T04:47:25.199Z,18.10
2018-07-13T04:49:53.553Z,18.20
2018-07-13T04:52:21.975Z,18.20
2018-07-13T04:54:50.373Z,18.30
2018-07-13T04:57:18.764Z,18.30
2018-07-13T04:59:47.135Z,18.30
2018-07-13T05:02:15.737Z,18.40
2018-07-13T05:04:44.183Z,18.40
2018-07-13T05:07:12.633Z,18.30
2018-07-13T05:09:41.019Z,18.30
2018-07-13T05:12:09.793Z,18.30
2018-07-13T05:14:38.551Z,18.30
2018-07-13T05:17:07.061Z,18.30
2018-07-13T05:19:35.408Z,18.30
2018-07-13T05:22:03.888Z,18.40
2018-07-13T05:24:32.312Z,18.40
2018-07-13T05:27:00.773Z,18.30
2018-07-13T05:29:29.169Z,18.30
2018-07-13T05:31:57.646Z,18.40
2018-07-13T05:34:26.057Z,18.40
2018-07-13T05:36:54.482Z,18.50
2018-07-13T05:39:22.918Z,18.60
2018-07-13T05:41:51.403Z,18.50
2018-07-13T05:44:20.117Z,18.50
2018-07-13T05:46:48.487Z,18.60
2018-07-13T05:49:16.982Z,18.70
2018-07-13T05:51:45.712Z,18.80
2018-07-13T05:54:14.663Z,18.80
2018-07-13T05:56:43.177Z,18.70
2018-07-13T05:59:11.669Z,18.70
2018-07-13T06:01:40.107Z,18.80
2018-07-13T06:04:09.020Z,18.80
2018-07-13T06:06:37.454Z,18.80
2018-07-13T06:09:08.363Z,19.00
2018-07-13T06:11:57.925Z,18.90
2018-07-13T06:14:26.285Z,18.90
2018-07-13T06:16:54.685Z,18.80
2018-07-13T06:19:23.098Z,18.80
2018-07-13T06:21:52.235Z,18.90
2018-07-13T06:24:20.696Z,18.90
2018-07-13T06:26:49.137Z,19.00
2018-07-13T06:29:17.621Z,19.00
2018-07-13T06:31:46.048Z,19.10
2018-07-13T06:34:14.588Z,19.20
2018-07-13T06:36:42.962Z,19.40
2018-07-13T06:39:12.591Z,19.50
2018-07-13T06:41:41.021Z,19.50
2018-07-13T06:44:09.525Z,19.30
2018-07-13T06:46:42.608Z,19.20
2018-07-13T06:49:11.082Z,19.10
2018-07-13T06:51:39.598Z,19.00
2018-07-13T06:54:08.415Z,19.10
2018-07-13T06:56:44.246Z,19.20
2018-07-13T06:59:15.863Z,19.20
2018-07-13T07:01:44.900Z,19.20
2018-07-13T07:04:29.662Z,19.20
2018-07-13T07:06:59.371Z,19.30
2018-07-13T07:09:28.323Z,19.50
2018-07-13T07:12:10.066Z,19.60
2018-07-13T07:14:38.591Z,19.60
2018-07-13T07:17:07.067Z,19.70
2018-07-13T07:19:39.452Z,19.60
2018-07-13T07:22:07.837Z,19.60
2018-07-13T07:24:36.300Z,19.60
2018-07-13T07:27:06.293Z,19.70
2018-07-13T07:29:34.692Z,19.80
2018-07-13T07:32:03.152Z,19.80
2018-07-13T07:34:31.710Z,19.80
2018-07-13T07:37:00.174Z,19.90
2018-07-13T07:39:28.647Z,19.80
2018-07-13T07:41:57.061Z,19.80
2018-07-13T07:44:25.519Z,19.80
2018-07-13T07:46:53.971Z,19.80
2018-07-13T07:49:22.340Z,19.90
2018-07-13T07:51:50.875Z,20.00
2018-07-13T07:54:19.548Z,20.10
2018-07-13T07:56:47.899Z,20.20
2018-07-13T07:59:16.260Z,20.30
2018-07-13T08:01:44.861Z,20.50
2018-07-13T08:04:13.227Z,20.50
2018-07-13T08:06:41.908Z,20.50
2018-07-13T08:09:10.066Z,20.60
2018-07-13T08:11:38.478Z,20.70
2018-07-13T08:14:07.482Z,20.80
2018-07-13T08:16:35.868Z,20.70
2018-07-13T08:19:04.329Z,20.70
2018-07-13T08:21:36.563Z,20.80
2018-07-13T08:24:05.056Z,20.80
2018-07-13T08:26:33.560Z,20.80
2018-07-13T08:29:02.091Z,21.00
2018-07-13T08:31:30.548Z,21.10
2018-07-13T08:33:58.989Z,21.30
2018-07-13T08:36:27.416Z,21.20
2018-07-13T08:38:55.871Z,21.30
2018-07-13T08:41:24.359Z,21.50
2018-07-13T08:43:52.765Z,21.50
2018-07-13T08:46:21.186Z,21.40
2018-07-13T08:48:49.687Z,21.50
2018-07-13T08:51:18.143Z,21.40
2018-07-13T08:53:46.592Z,21.20
2018-07-13T08:56:15.049Z,21.30
2018-07-13T08:58:43.404Z,21.40
2018-07-13T09:01:11.826Z,21.70
2018-07-13T09:03:40.225Z,21.90
2018-07-13T09:06:09.314Z,22.00
2018-07-13T09:08:37.751Z,22.10
2018-07-13T09:11:06.469Z,22.30
2018-07-13T09:13:34.887Z,22.40
2018-07-13T09:16:03.303Z,22.30
2018-07-13T09:18:31.715Z,22.20
2018-07-13T09:21:00.099Z,22.10
2018-07-13T09:23:28.543Z,22.10
2018-07-13T09:25:56.965Z,22.20
2018-07-13T09:28:25.444Z,22.40
2018-07-13T09:30:53.904Z,22.80
2018-07-13T09:33:22.329Z,22.80
2018-07-13T09:35:51.292Z,22.90
2018-07-13T09:38:20.122Z,22.80
2018-07-13T09:40:48.594Z,22.80
2018-07-13T09:43:17.105Z,22.80
2018-07-13T09:45:45.570Z,22.80
2018-07-13T09:48:14.331Z,22.80
2018-07-13T09:50:42.732Z,22.90
2018-07-13T09:53:11.121Z,22.90
2018-07-13T09:55:39.552Z,22.50
2018-07-13T09:58:07.979Z,22.20
2018-07-13T10:00:41.682Z,22.40
2018-07-13T10:03:10.112Z,22.60
2018-07-13T10:05:38.509Z,22.70
2018-07-13T10:08:06.903Z,22.80
2018-07-13T10:10:35.365Z,23.00
2018-07-13T10:13:03.735Z,23.10
2018-07-13T10:15:32.175Z,23.10
2018-07-13T10:18:00.779Z,22.90
2018-07-13T10:20:29.182Z,22.60
2018-07-13T10:22:57.580Z,22.40
2018-07-13T10:25:28.136Z,22.30
2018-07-13T10:27:56.829Z,22.70
2018-07-13T10:30:25.978Z,23.30
2018-07-13T10:32:54.676Z,23.50
2018-07-13T10:35:23.085Z,23.50
2018-07-13T10:37:51.521Z,24.10
2018-07-13T10:40:19.930Z,24.30
2018-07-13T10:42:48.304Z,24.10
2018-07-13T10:45:16.656Z,24.10
2018-07-13T10:47:45.209Z,24.00
2018-07-13T10:50:14.243Z,23.60
2018-07-13T10:52:42.614Z,24.00
2018-07-13T10:55:11.066Z,24.10
2018-07-13T10:57:39.527Z,24.30
2018-07-13T11:00:07.900Z,24.40
2018-07-13T11:02:36.326Z,23.80
2018-07-13T11:05:05.311Z,24.00
2018-07-13T11:07:33.723Z,24.20
2018-07-13T11:10:02.066Z,24.40
2018-07-13T11:12:30.506Z,24.50
2018-07-13T11:14:58.945Z,24.40
2018-07-13T11:17:27.332Z,24.10
2018-07-13T11:19:55.694Z,24.40
2018-07-13T11:22:24.079Z,24.60
2018-07-13T11:24:52.542Z,24.80
2018-07-13T11:27:20.974Z,24.90
2018-07-13T11:29:49.474Z,24.90
2018-07-13T11:32:17.995Z,24.70
2018-07-13T11:34:46.567Z,24.80
2018-07-13T11:37:15.081Z,25.00
2018-07-13T11:39:43.383Z,25.10
2018-07-13T11:42:11.785Z,25.00
2018-07-13T11:44:40.171Z,25.30
2018-07-13T11:47:08.612Z,25.30
2018-07-13T11:49:36.995Z,25.20
2018-07-13T11:52:05.351Z,25.20
2018-07-13T11:54:33.772Z,25.40
2018-07-13T11:57:02.130Z,25.50
2018-07-13T11:59:30.701Z,25.60
2018-07-13T12:01:59.085Z,25.60
2018-07-13T12:04:27.434Z,25.70
2018-07-13T12:06:56.355Z,25.90
2018-07-13T12:09:24.773Z,25.90
2018-07-13T12:11:53.260Z,25.80
2018-07-13T12:14:21.689Z,26.00
2018-07-13T12:16:50.120Z,26.00
2018-07-13T12:19:18.511Z,26.00
2018-07-13T12:21:46.918Z,26.00
2018-07-13T12:24:15.459Z,25.80
2018-07-13T12:26:43.877Z,25.90
2018-07-13T12:29:13.133Z,25.90
2018-07-13T12:31:41.576Z,25.90
2018-07-13T12:34:09.963Z,25.50
2018-07-13T12:36:38.342Z,25.60
2018-07-13T12:39:07.043Z,25.80
2018-07-13T12:41:35.464Z,25.70
2018-07-13T12:44:03.932Z,25.70
2018-07-13T12:46:32.411Z,26.00
2018-07-13T12:49:00.898Z,25.80
2018-07-13T12:51:29.415Z,25.80
2018-07-13T12:53:57.824Z,25.80
2018-07-13T12:56:26.249Z,25.90
2018-07-13T12:58:54.700Z,26.00
2018-07-13T13:01:24.299Z,26.00
2018-07-13T13:03:52.896Z,26.00
2018-07-13T13:06:21.360Z,26.20
2018-07-13T13:08:49.749Z,26.20
2018-07-13T13:11:18.197Z,26.20
2018-07-13T13:13:46.542Z,26.20
2018-07-13T13:16:15.027Z,25.90
2018-07-13T13:18:43.411Z,26.10
2018-07-13T13:21:11.755Z,26.40
2018-07-13T13:23:40.095Z,26.70
2018-07-13T13:26:08.445Z,26.60
2018-07-13T13:28:36.806Z,26.50
2018-07-13T13:31:05.134Z,26.20
2018-07-13T13:33:33.697Z,25.70
2018-07-13T13:36:02.036Z,25.30
2018-07-13T13:38:31.655Z,25.00
2018-07-13T13:40:59.978Z,24.90
2018-07-13T13:43:28.340Z,25.30
2018-07-13T13:45:56.737Z,25.50
2018-07-13T13:48:25.133Z,25.30
2018-07-13T13:50:53.481Z,25.20
2018-07-13T13:53:21.799Z,25.60
2018-07-13T13:55:50.176Z,25.80
2018-07-13T13:58:18.559Z,25.90
2018-07-13T14:00:48.039Z,26.30
2018-07-13T14:03:16.502Z,26.40
2018-07-13T14:05:45.521Z,26.60
2018-07-13T14:08:13.928Z,26.60
2018-07-13T14:10:42.285Z,26.90
2018-07-13T14:13:10.655Z,26.80
2018-07-13T14:15:39.060Z,26.60
2018-07-13T14:18:07.699Z,26.50
2018-07-13T14:20:42.756Z,26.40
2018-07-13T14:23:11.471Z,26.90
2018-07-13T14:25:40.532Z,26.90
2018-07-13T14:28:08.894Z,26.80
2018-07-13T14:30:37.253Z,26.80
2018-07-13T14:33:05.641Z,26.70
2018-07-13T14:35:34.016Z,26.70
2018-07-13T14:38:02.367Z,26.90
2018-07-13T14:40:30.705Z,27.20
2018-07-13T14:42:59.071Z,26.80
2018-07-13T14:45:27.455Z,26.90
2018-07-13T14:47:55.842Z,26.90
2018-07-13T14:50:24.224Z,26.90
2018-07-13T14:52:55.948Z,27.10
2018-07-13T14:55:24.266Z,27.10
2018-07-13T14:57:52.701Z,27.20
2018-07-13T15:00:21.108Z,27.00
2018-07-13T15:02:49.659Z,27.00
2018-07-13T15:05:18.036Z,27.10
2018-07-13T15:07:46.519Z,27.10
2018-07-13T15:10:15.653Z,27.00
2018-07-13T15:12:45.006Z,27.30
2018-07-13T15:15:14.553Z,27.30
2018-07-13T15:17:44.934Z,27.60
2018-07-13T15:20:13.816Z,27.50
2018-07-13T15:22:54.072Z,27.50
2018-07-13T15:25:23.277Z,27.40
2018-07-13T15:27:52.340Z,27.70
2018-07-13T15:30:21.301Z,27.80
2018-07-13T15:32:50.984Z,27.80
2018-07-13T15:35:19.398Z,27.60
2018-07-13T15:37:48.341Z,27.80
2018-07-13T15:40:17.758Z,27.80
2018-07-13T15:42:47.314Z,28.00
2018-07-13T15:45:17.355Z,28.00
2018-07-13T15:47:47.703Z,28.30
2018-07-13T15:50:16.767Z,28.60
2018-07-13T15:52:45.612Z,29.10
2018-07-13T15:55:14.342Z,30.20
2018-07-13T15:57:45.120Z,31.50
2018-07-13T16:00:15.060Z,32.10
2018-07-13T16:02:43.551Z,32.90
2018-07-13T16:05:11.951Z,33.50
2018-07-13T16:07:40.303Z,34.20
2018-07-13T16:10:08.790Z,34.60
2018-07-13T16:12:37.181Z,34.90
2018-07-13T16:15:05.600Z,35.70
2018-07-13T16:17:33.927Z,35.70
2018-07-13T16:20:02.255Z,36.20
2018-07-13T16:22:30.579Z,36.40
2018-07-13T16:24:59.311Z,36.60
2018-07-13T16:27:27.687Z,36.90
2018-07-13T16:29:56.087Z,37.10
2018-07-13T16:32:24.510Z,37.00
2018-07-13T16:34:52.893Z,36.90
2018-07-13T16:37:21.303Z,37.20
2018-07-13T16:39:49.757Z,37.20
2018-07-13T16:42:18.239Z,37.20
2018-07-13T16:44:47.085Z,37.30
2018-07-13T16:47:15.689Z,37.30
2018-07-13T16:49:46.171Z,36.80
2018-07-13T16:52:14.655Z,37.10
2018-07-13T16:54:43.100Z,37.20
2018-07-13T16:57:11.502Z,37.10
2018-07-13T16:59:39.905Z,36.90
2018-07-13T17:02:08.273Z,37.40
2018-07-13T17:04:36.618Z,37.40
2018-07-13T17:07:05.150Z,37.00
2018-07-13T17:09:33.506Z,36.70
2018-07-13T17:12:01.865Z,36.60
2018-07-13T17:14:30.226Z,36.30
2018-07-13T17:16:59.127Z,36.30
2018-07-13T17:19:27.506Z,35.90
2018-07-13T17:21:55.938Z,36.00
2018-07-13T17:24:24.556Z,35.80
2018-07-13T17:26:53.019Z,35.50
2018-07-13T17:29:23.440Z,35.40
2018-07-13T17:31:51.759Z,35.00
2018-07-13T17:34:20.766Z,34.40
2018-07-13T17:37:09.965Z,33.80
2018-07-13T17:39:45.219Z,31.70
2018-07-13T17:42:13.662Z,29.00
2018-07-13T17:44:42.048Z,27.30
2018-07-13T17:47:10.394Z,26.10
2018-07-13T17:49:38.814Z,25.50
2018-07-13T17:52:07.258Z,25.00
2018-07-13T17:54:36.034Z,24.70
2018-07-13T17:57:04.595Z,24.30
2018-07-13T17:59:33.029Z,23.90
2018-07-13T18:02:01.664Z,23.80
2018-07-13T18:04:30.414Z,23.70
2018-07-13T18:06:58.836Z,23.50
2018-07-13T18:09:27.207Z,23.20
2018-07-13T18:11:55.610Z,23.10
2018-07-13T18:14:23.951Z,22.90
2018-07-13T18:16:52.802Z,22.80
2018-07-13T18:19:22.295Z,22.60
2018-07-13T18:21:50.739Z,22.30
2018-07-13T18:24:19.063Z,22.20
2018-07-13T18:26:47.445Z,22.10
2018-07-13T18:29:15.904Z,22.10
2018-07-13T18:31:44.261Z,22.10
2018-07-13T18:34:13.534Z,22.00
2018-07-13T18:36:42.403Z,21.90
2018-07-13T18:39:10.725Z,21.80
2018-07-13T18:41:39.082Z,21.70
2018-07-13T18:44:07.525Z,21.60
2018-07-13T18:46:35.839Z,21.60
2018-07-13T18:49:04.223Z,21.50
2018-07-13T18:51:32.573Z,21.30
2018-07-13T18:54:00.931Z,21.20
2018-07-13T18:56:29.252Z,21.20
2018-07-13T18:58:57.641Z,21.20
2018-07-13T19:01:26.126Z,21.10
2018-07-13T19:03:54.488Z,21.10
2018-07-13T19:06:22.838Z,21.10
2018-07-13T19:08:51.218Z,21.10
2018-07-13T19:11:19.599Z,21.00
2018-07-13T19:13:48.080Z,20.90
2018-07-13T19:16:17.544Z,20.90
2018-07-13T19:18:45.905Z,20.80
2018-07-13T19:21:14.272Z,20.70
2018-07-13T19:23:42.746Z,20.60
2018-07-13T19:26:11.159Z,20.50
2018-07-13T19:28:39.538Z,20.50
2018-07-13T19:31:08.022Z,20.50
2018-07-13T19:33:36.651Z,20.40
2018-07-13T19:36:05.139Z,20.30
2018-07-13T19:38:35.216Z,20.30
2018-07-13T19:41:03.710Z,20.20
2018-07-13T19:43:32.520Z,20.20
2018-07-13T19:46:00.939Z,20.10
2018-07-13T19:48:32.247Z,20.10
2018-07-13T19:51:04.457Z,20.00
2018-07-13T19:53:33.731Z,20.00
2018-07-13T19:56:02.867Z,19.90
2018-07-13T19:58:32.120Z,19.80
2018-07-13T20:01:04.951Z,19.70
2018-07-13T20:03:34.183Z,19.70
2018-07-13T20:06:04.191Z,19.60
2018-07-13T20:08:35.600Z,19.60
2018-07-13T20:11:06.412Z,19.50
2018-07-13T20:13:35.984Z,19.50
2018-07-13T20:16:05.350Z,19.40
2018-07-13T20:18:34.913Z,19.40
2018-07-13T20:21:05.235Z,19.30
2018-07-13T20:23:33.587Z,19.30
2018-07-13T20:26:01.961Z,19.30
2018-07-13T20:28:31.367Z,19.20
2018-07-13T20:30:59.888Z,19.10
2018-07-13T20:33:28.740Z,19.00
2018-07-13T20:35:57.325Z,19.00
2018-07-13T20:38:26.651Z,19.00
2018-07-13T20:40:55.590Z,18.90
2018-07-13T20:43:26.587Z,19.00
2018-07-13T20:45:56.045Z,18.90
2018-07-13T20:48:24.413Z,18.80
2018-07-13T20:50:52.799Z,18.80
2018-07-13T20:53:21.183Z,18.80
2018-07-13T20:55:49.540Z,18.80
2018-07-13T20:58:17.950Z,18.90
2018-07-13T21:00:46.376Z,18.90
2018-07-13T21:03:14.760Z,18.90
2018-07-13T21:05:43.312Z,19.00
2018-07-13T21:08:11.845Z,18.90
2018-07-13T21:10:40.186Z,19.00
2018-07-13T21:13:08.617Z,19.00
2018-07-13T21:15:36.963Z,19.00
2018-07-13T21:18:05.343Z,18.80
2018-07-13T21:20:33.767Z,18.80
2018-07-13T21:23:02.239Z,18.80
2018-07-13T21:25:30.599Z,18.90
2018-07-13T21:27:59.104Z,18.80
2018-07-13T21:30:27.448Z,18.80
2018-07-13T21:32:55.836Z,18.70
2018-07-13T21:35:24.168Z,18.80
2018-07-13T21:37:52.546Z,18.80
2018-07-13T21:40:20.914Z,18.90
2018-07-13T21:42:49.319Z,18.80
2018-07-13T21:45:17.842Z,18.90
2018-07-13T21:47:46.292Z,19.00
2018-07-13T21:50:14.710Z,18.80
2018-07-13T21:52:43.096Z,18.80
2018-07-13T21:55:11.476Z,18.70
2018-07-13T21:57:39.837Z,18.80
2018-07-13T22:00:08.245Z,18.80
2018-07-13T22:02:36.772Z,18.80
2018-07-13T22:05:05.060Z,18.80
2018-07-13T22:07:33.457Z,18.80
2018-07-13T22:10:01.835Z,18.80
2018-07-13T22:12:30.251Z,18.80
2018-07-13T22:14:58.593Z,18.80
2018-07-13T22:17:26.947Z,18.80
2018-07-13T22:19:55.307Z,18.80
2018-07-13T22:22:23.692Z,18.60
2018-07-13T22:24:52.108Z,18.60
2018-07-13T22:27:20.459Z,18.60
2018-07-13T22:29:48.820Z,18.50
2018-07-13T22:32:17.244Z,18.50
2018-07-13T22:34:45.621Z,18.50
2018-07-13T22:37:14.029Z,18.50
2018-07-13T22:39:42.442Z,18.60
2018-07-13T22:42:10.808Z,18.70
2018-07-13T22:44:39.172Z,18.70
2018-07-13T22:47:07.515Z,18.70
2018-07-13T22:49:35.933Z,18.60
2018-07-13T22:52:04.312Z,18.60
2018-07-13T22:54:32.662Z,18.70
2018-07-13T22:57:01.028Z,18.70
2018-07-13T22:59:29.402Z,18.50
2018-07-13T23:01:57.796Z,18.40
2018-07-13T23:04:26.159Z,18.40
2018-07-13T23:06:54.802Z,18.30
2018-07-13T23:09:23.164Z,18.40
2018-07-13T23:11:51.609Z,18.30
2018-07-13T23:14:19.958Z,18.30
2018-07-13T23:16:48.361Z,18.20
2018-07-13T23:19:18.474Z,18.10
2018-07-13T23:21:46.843Z,18.20
2018-07-13T23:24:15.570Z,18.10
2018-07-13T23:26:43.955Z,18.20
2018-07-13T23:29:12.319Z,18.30
2018-07-13T23:31:40.670Z,18.40
2018-07-13T23:34:09.079Z,18.30
2018-07-13T23:36:37.467Z,18.10
2018-07-13T23:39:06.268Z,18.20
2018-07-13T23:41:34.634Z,18.20
2018-07-13T23:44:03.104Z,18.30
2018-07-13T23:46:31.526Z,18.40
2018-07-13T23:48:59.927Z,18.40
2018-07-13T23:51:28.339Z,18.10
2018-07-13T23:53:56.719Z,18.40
2018-07-13T23:56:25.175Z,18.20
2018-07-13T23:58:53.559Z,18.10
